الصفحة الرئيسية
METAR-TAF:

METAR-TAF

مطار :

مطار شانغي سنغافورة

سنغافورة, سنغافورة

دائرة عرض: 01-22N, خط طول: 103-59E, ارتفاع: 5 متر

مراقبة الطقس الحالي

تاريخ ووقت الإصدار 29 دقيقة قبل الساعة 22:30UTC
ريح 2 عقدةمن اتجاهات متغيرة
درجة الحرارة 28°درجة مئوية
الرطوبة 89%
ضغط 1008 hPa
الرؤية 10 كم أو أكثر
غيوم قليلة على ارتفاع 1500 قدم
غيوم مفككة على ارتفاع 30000 قدم

METAR: WSSS 242230Z VRB02KT 9999 FEW015 BKN300 28/26 Q1008 NOSIG

زمن: 06:59 (22:59 UTC)

توقعات

تاريخ ووقت الإصدار 5ساعات و 59 دقيقة قبل الساعة 17:00UTC
التوقعات صالحة من24 الساعة 18 UTC إلى 26 الساعة 00 UTC
ريح 5 عقدة من الشرق/الجنوب الشرقي
الرؤية 10 كم أو أكثر
غيوم قليلة على ارتفاع 1500 قدم
غيوم متفرقة على ارتفاع 2000 قدم

TAF: WSSS 241700Z 2418/2600 12005KT 9999 FEW015 SCT020

أرصاد الطقس والتوقعات من أكثر من 4000 مطار (تقارير الطقس للمطار METAR والتنبؤ بالطقس بالمطارTAF).

المحطات المتاحة هي النقط الصفراء والحمراء على الخريطة.

حرك المؤشر فوق النقطة لمعرفة اسم المحطة.

ثم انقر لمعرفة أرصاد وتوقعات الطقس.

لتغيير الخارطة: اضغط على الأزرار الخضراء مع رمز الصليب الأسود للتكبير. على الزر الأخضر مع شرطة للتصغير، أو على الأسهم الخضراء للخرائط المجاورة.


METAR-TAF: